createdAt,value
2022-08-21T00:02:16.793Z,4.80
2022-08-21T00:04:55.834Z,5.15
2022-08-21T00:07:28.025Z,5.10
2022-08-21T00:09:57.637Z,4.57
2022-08-21T00:12:26.574Z,5.00
2022-08-21T00:14:58.121Z,5.53
2022-08-21T00:17:28.434Z,4.82
2022-08-21T00:19:57.324Z,5.00
2022-08-21T00:22:25.976Z,5.25
2022-08-21T00:24:54.572Z,5.18
2022-08-21T00:27:23.392Z,5.28
2022-08-21T00:29:52.818Z,5.00
2022-08-21T00:32:26.878Z,4.60
2022-08-21T00:34:57.447Z,4.75
2022-08-21T00:37:26.652Z,4.57
2022-08-21T00:39:55.269Z,4.80
2022-08-21T00:42:24.344Z,5.10
2022-08-21T00:44:53.149Z,5.20
2022-08-21T00:47:22.022Z,5.22
2022-08-21T00:49:50.834Z,4.80
2022-08-21T00:52:28.813Z,4.72
2022-08-21T00:54:59.903Z,4.95
2022-08-21T00:57:36.028Z,4.63
2022-08-21T01:00:16.806Z,4.65
2022-08-21T01:02:45.735Z,4.95
2022-08-21T01:05:15.823Z,4.78
2022-08-21T01:07:46.225Z,4.57
2022-08-21T01:10:24.044Z,4.57
2022-08-21T01:12:57.198Z,4.72
2022-08-21T01:15:31.438Z,4.93
2022-08-21T01:18:00.449Z,5.05
2022-08-21T01:20:32.880Z,5.20
2022-08-21T01:23:03.977Z,4.78
2022-08-21T01:25:34.221Z,4.97
2022-08-21T01:28:13.027Z,4.45
2022-08-21T01:30:45.306Z,4.30
2022-08-21T01:33:14.100Z,4.05
2022-08-21T01:35:42.638Z,4.80
2022-08-21T01:38:13.220Z,4.78
2022-08-21T01:40:41.979Z,4.72
2022-08-21T01:43:10.626Z,4.13
2022-08-21T01:45:39.512Z,4.70
2022-08-21T01:48:08.353Z,5.10
2022-08-21T01:50:37.305Z,5.20
2022-08-21T01:53:06.845Z,5.38
2022-08-21T01:55:37.126Z,5.15
2022-08-21T01:58:05.712Z,5.03
2022-08-21T02:00:34.303Z,4.93
2022-08-21T02:03:03.076Z,5.15
2022-08-21T02:05:31.770Z,5.35
2022-08-21T02:08:00.346Z,5.22
2022-08-21T02:10:33.483Z,5.22
2022-08-21T02:13:03.673Z,5.30
2022-08-21T02:15:32.808Z,5.38
2022-08-21T02:18:04.468Z,5.40
2022-08-21T02:20:38.482Z,5.68
2022-08-21T02:23:09.748Z,5.90
2022-08-21T02:25:39.306Z,4.97
2022-08-21T02:28:12.903Z,5.72
2022-08-21T02:30:46.085Z,4.88
2022-08-21T02:33:15.852Z,5.03
2022-08-21T02:35:48.236Z,4.70
2022-08-21T02:38:20.524Z,5.35
2022-08-21T02:40:53.070Z,5.40
2022-08-21T02:43:26.780Z,5.22
2022-08-21T02:45:57.264Z,5.13
2022-08-21T02:48:30.933Z,5.40
2022-08-21T02:51:04.116Z,5.40
2022-08-21T02:53:35.330Z,5.43
2022-08-21T02:56:08.323Z,5.22
2022-08-21T02:58:42.812Z,5.50
2022-08-21T03:01:13.154Z,5.22
2022-08-21T03:03:45.651Z,5.22
2022-08-21T03:06:17.040Z,5.93
2022-08-21T03:08:46.835Z,5.25
2022-08-21T03:11:16.543Z,5.43
2022-08-21T03:13:46.682Z,5.03
2022-08-21T03:16:15.875Z,4.88
2022-08-21T03:18:44.444Z,5.28
2022-08-21T03:21:14.138Z,5.38
2022-08-21T03:23:44.107Z,5.47
2022-08-21T03:26:14.262Z,5.80
2022-08-21T03:28:42.962Z,5.60
2022-08-21T03:31:13.072Z,5.00
2022-08-21T03:33:41.623Z,4.88
2022-08-21T03:36:12.024Z,5.00
2022-08-21T03:38:41.353Z,5.07
2022-08-21T03:41:10.532Z,5.47
2022-08-21T03:43:39.539Z,5.18
2022-08-21T03:46:09.072Z,5.70
2022-08-21T03:48:40.543Z,5.38
2022-08-21T03:51:10.346Z,5.63
2022-08-21T03:53:38.895Z,5.75
2022-08-21T03:56:08.820Z,5.63
2022-08-21T03:58:37.936Z,5.53
2022-08-21T04:01:08.365Z,5.35
2022-08-21T04:03:39.886Z,5.28
2022-08-21T04:06:09.691Z,4.97
2022-08-21T04:08:39.086Z,5.78
2022-08-21T04:11:08.415Z,6.05
2022-08-21T04:13:44.311Z,5.82
2022-08-21T04:16:14.021Z,5.63
2022-08-21T04:18:44.543Z,5.70
2022-08-21T04:21:14.138Z,5.88
2022-08-21T04:23:42.795Z,5.50
2022-08-21T04:26:12.537Z,5.57
2022-08-21T04:28:41.105Z,5.32
2022-08-21T04:31:10.677Z,5.20
2022-08-21T04:33:39.483Z,5.43
2022-08-21T04:36:28.367Z,5.40
2022-08-21T04:38:57.211Z,5.43
2022-08-21T04:41:28.131Z,5.60
2022-08-21T04:43:57.243Z,5.82
2022-08-21T04:46:26.237Z,4.78
2022-08-21T04:48:55.161Z,5.50
2022-08-21T04:51:31.948Z,5.95
2022-08-21T04:54:08.720Z,4.85
2022-08-21T04:56:43.776Z,5.32
2022-08-21T04:59:18.329Z,5.53
2022-08-21T05:01:49.310Z,5.63
2022-08-21T05:04:25.039Z,5.93
2022-08-21T05:06:59.761Z,5.53
2022-08-21T05:09:31.214Z,5.55
2022-08-21T05:12:00.029Z,5.95
2022-08-21T05:14:28.560Z,5.68
2022-08-21T05:16:57.353Z,5.22
2022-08-21T05:19:26.911Z,5.45
2022-08-21T05:21:56.959Z,5.38
2022-08-21T05:24:26.249Z,5.20
2022-08-21T05:26:55.038Z,5.35
2022-08-21T05:29:24.165Z,5.28
2022-08-21T05:31:53.463Z,4.90
2022-08-21T05:34:24.740Z,5.47
2022-08-21T05:36:53.572Z,5.00
2022-08-21T05:39:23.463Z,5.25
2022-08-21T05:41:52.011Z,6.00
2022-08-21T05:44:20.795Z,6.00
2022-08-21T05:46:51.686Z,5.55
2022-08-21T05:49:20.275Z,5.93
2022-08-21T05:51:49.051Z,5.72
2022-08-21T05:54:17.599Z,5.72
2022-08-21T05:56:47.941Z,5.38
2022-08-21T05:59:17.061Z,5.82
2022-08-21T06:01:46.327Z,5.15
2022-08-21T06:04:15.913Z,5.53
2022-08-21T06:06:44.661Z,5.85
2022-08-21T06:09:13.215Z,5.93
2022-08-21T06:11:41.845Z,5.72
2022-08-21T06:14:12.467Z,5.80
2022-08-21T06:16:41.052Z,5.70
2022-08-21T06:19:09.711Z,6.22
2022-08-21T06:21:38.503Z,5.95
2022-08-21T06:24:08.935Z,5.68
2022-08-21T06:26:38.070Z,6.25
2022-08-21T06:29:07.177Z,5.72
2022-08-21T06:31:37.205Z,5.70
2022-08-21T06:34:06.679Z,5.15
2022-08-21T06:36:35.614Z,5.78
2022-08-21T06:39:16.477Z,5.03
2022-08-21T06:41:53.778Z,5.22
2022-08-21T06:44:30.108Z,6.47
2022-08-21T06:47:00.257Z,6.03
2022-08-21T06:49:28.811Z,5.95
2022-08-21T06:51:57.508Z,5.40
2022-08-21T06:54:26.411Z,5.22
2022-08-21T06:56:55.047Z,5.53
2022-08-21T06:59:23.810Z,5.57
2022-08-21T07:01:52.725Z,5.68
2022-08-21T07:04:22.700Z,5.53
2022-08-21T07:06:51.323Z,6.13
2022-08-21T07:09:24.400Z,5.57
2022-08-21T07:11:57.766Z,5.20
2022-08-21T07:14:26.713Z,5.07
2022-08-21T07:16:55.375Z,5.70
2022-08-21T07:19:25.364Z,5.53
2022-08-21T07:22:02.377Z,5.20
2022-08-21T07:24:31.635Z,5.32
2022-08-21T07:27:00.495Z,5.22
2022-08-21T07:29:29.147Z,5.63
2022-08-21T07:31:57.791Z,5.60
2022-08-21T07:34:27.931Z,4.93
2022-08-21T07:36:56.649Z,5.18
2022-08-21T07:39:27.407Z,5.50
2022-08-21T07:41:56.199Z,5.13
2022-08-21T07:44:24.816Z,4.88
2022-08-21T07:46:53.431Z,5.20
2022-08-21T07:49:22.264Z,4.82
2022-08-21T07:51:52.914Z,4.90
2022-08-21T07:54:33.344Z,4.55
2022-08-21T07:57:03.087Z,4.80
2022-08-21T07:59:31.876Z,4.70
2022-08-21T08:02:00.626Z,4.65
2022-08-21T08:04:29.380Z,4.28
2022-08-21T08:06:59.350Z,4.07
2022-08-21T08:09:28.031Z,4.38
2022-08-21T08:11:56.865Z,4.63
2022-08-21T08:14:26.508Z,4.45
2022-08-21T08:17:00.484Z,4.32
2022-08-21T08:19:29.024Z,4.10
2022-08-21T08:21:59.100Z,4.63
2022-08-21T08:24:27.940Z,4.38
2022-08-21T08:26:58.061Z,4.35
2022-08-21T08:29:26.610Z,4.28
2022-08-21T08:31:56.506Z,5.10
2022-08-21T08:34:25.601Z,4.55
2022-08-21T08:36:54.996Z,4.30
2022-08-21T08:39:29.639Z,4.72
2022-08-21T08:42:33.543Z,4.03
2022-08-21T08:45:03.870Z,4.25
2022-08-21T08:47:36.802Z,4.50
2022-08-21T08:50:11.837Z,4.50
2022-08-21T08:52:51.132Z,4.38
2022-08-21T08:55:36.631Z,4.20
2022-08-21T08:58:06.030Z,4.10
2022-08-21T09:00:35.612Z,4.22
2022-08-21T09:03:06.116Z,3.95
2022-08-21T09:05:47.436Z,4.10
2022-08-21T09:08:50.625Z,3.95
2022-08-21T09:11:31.425Z,4.70
2022-08-21T09:14:16.444Z,4.65
2022-08-21T09:16:55.989Z,3.90
2022-08-21T09:19:44.746Z,4.07
2022-08-21T09:22:29.992Z,4.28
2022-08-21T09:25:12.908Z,4.15
2022-08-21T09:27:43.029Z,4.50
2022-08-21T09:30:13.376Z,4.53
2022-08-21T09:32:42.544Z,4.82
2022-08-21T09:35:17.655Z,4.00
2022-08-21T09:37:55.634Z,4.20
2022-08-21T09:40:38.767Z,4.40
2022-08-21T09:43:19.977Z,4.60
2022-08-21T09:46:02.770Z,4.10
2022-08-21T09:48:32.532Z,4.28
2022-08-21T09:51:12.838Z,4.30
2022-08-21T09:53:48.691Z,4.50
2022-08-21T09:56:46.797Z,3.97
2022-08-21T09:59:27.794Z,4.07
2022-08-21T10:01:56.830Z,4.00
2022-08-21T10:04:33.090Z,4.38
2022-08-21T10:07:13.548Z,4.35
2022-08-21T10:09:43.728Z,3.75
2022-08-21T10:12:30.872Z,4.13
2022-08-21T10:15:14.612Z,4.32
2022-08-21T10:18:05.077Z,4.35
2022-08-21T10:20:46.996Z,3.70
2022-08-21T10:23:36.702Z,3.75
2022-08-21T10:26:23.076Z,3.50
2022-08-21T10:29:06.256Z,4.03
2022-08-21T10:31:55.636Z,3.65
2022-08-21T10:34:50.782Z,3.40
2022-08-21T10:37:39.212Z,3.72
2022-08-21T10:40:23.557Z,3.17
2022-08-21T10:43:14.828Z,3.25
2022-08-21T10:45:59.698Z,3.58
2022-08-21T10:48:37.452Z,3.88
2022-08-21T10:51:16.434Z,3.50
2022-08-21T10:54:05.881Z,4.45
2022-08-21T10:56:40.760Z,3.53
2022-08-21T10:59:33.258Z,4.13
2022-08-21T11:02:19.035Z,3.78
2022-08-21T11:05:02.010Z,4.10
2022-08-21T11:07:38.007Z,3.88
2022-08-21T11:10:17.682Z,3.75
2022-08-21T11:12:54.831Z,4.20
2022-08-21T11:15:45.895Z,4.07
2022-08-21T11:18:26.854Z,3.50
2022-08-21T11:21:10.436Z,3.70
2022-08-21T11:23:48.715Z,3.47
2022-08-21T11:26:30.792Z,3.25
2022-08-21T11:29:13.765Z,3.33
2022-08-21T11:32:05.845Z,4.03
2022-08-21T11:34:52.282Z,3.97
2022-08-21T11:37:46.630Z,3.80
2022-08-21T11:40:42.611Z,3.42
2022-08-21T11:43:23.259Z,4.13
2022-08-21T11:45:55.296Z,3.80
2022-08-21T11:48:47.467Z,4.22
2022-08-21T11:51:22.760Z,3.92
2022-08-21T11:54:08.006Z,3.38
2022-08-21T11:56:43.378Z,3.70
2022-08-21T11:59:21.726Z,3.55
2022-08-21T12:01:55.483Z,3.10
2022-08-21T12:04:30.998Z,3.85
2022-08-21T12:07:17.797Z,3.65
2022-08-21T12:09:58.717Z,3.08
2022-08-21T12:12:30.800Z,3.53
2022-08-21T12:15:28.246Z,3.38
2022-08-21T12:18:02.163Z,3.20
2022-08-21T12:20:50.489Z,3.67
2022-08-21T12:23:30.411Z,3.17
2022-08-21T12:26:28.610Z,3.13
2022-08-21T12:29:27.654Z,3.08
2022-08-21T12:32:02.899Z,3.13
2022-08-21T12:34:38.692Z,3.10
2022-08-21T12:37:20.031Z,3.63
2022-08-21T12:39:53.791Z,2.65
2022-08-21T12:42:35.269Z,3.70
2022-08-21T12:45:17.053Z,3.28
2022-08-21T12:47:53.155Z,3.28
2022-08-21T12:50:31.001Z,3.40
2022-08-21T12:53:18.513Z,3.25
2022-08-21T12:55:50.107Z,3.25
2022-08-21T12:58:22.222Z,3.15
2022-08-21T13:00:56.755Z,3.28
2022-08-21T13:03:27.126Z,3.35
2022-08-21T13:05:56.385Z,3.17
2022-08-21T13:08:29.567Z,2.80
2022-08-21T13:11:15.260Z,3.10
2022-08-21T13:13:51.389Z,3.33
2022-08-21T13:16:28.312Z,3.20
2022-08-21T13:19:04.544Z,3.22
2022-08-21T13:21:40.663Z,3.17
2022-08-21T13:24:39.143Z,3.30
2022-08-21T13:27:23.723Z,3.20
2022-08-21T13:30:09.022Z,3.17
2022-08-21T13:32:44.368Z,3.30
2022-08-21T13:35:18.790Z,3.00
2022-08-21T13:37:52.094Z,3.03
2022-08-21T13:40:27.201Z,3.45
2022-08-21T13:42:57.748Z,3.08
2022-08-21T13:45:33.035Z,3.45
2022-08-21T13:48:06.578Z,2.90
2022-08-21T13:50:39.234Z,2.80
2022-08-21T13:53:23.783Z,3.63
2022-08-21T13:55:54.521Z,3.42
2022-08-21T13:58:31.271Z,2.97
2022-08-21T14:01:06.414Z,3.30
2022-08-21T14:03:43.678Z,3.20
2022-08-21T14:06:19.737Z,8.55
2022-08-21T14:08:55.295Z,4.30
2022-08-21T14:11:24.617Z,4.18
2022-08-21T14:14:01.203Z,4.40
2022-08-21T14:16:46.651Z,4.20
2022-08-21T14:19:23.767Z,3.30
2022-08-21T14:21:52.784Z,3.47
2022-08-21T14:24:31.199Z,3.50
2022-08-21T14:27:07.031Z,3.63
2022-08-21T14:29:40.126Z,3.10
2022-08-21T14:32:21.558Z,3.72
2022-08-21T14:34:54.711Z,3.38
2022-08-21T14:37:24.304Z,3.30
2022-08-21T14:39:53.104Z,3.40
2022-08-21T14:42:22.763Z,3.10
2022-08-21T14:44:51.850Z,3.20
2022-08-21T14:47:22.089Z,3.03
2022-08-21T14:49:51.367Z,3.22
2022-08-21T14:52:19.975Z,3.50
2022-08-21T14:54:48.615Z,2.88
2022-08-21T14:57:17.508Z,3.92
2022-08-21T14:59:46.166Z,3.25
2022-08-21T15:02:14.829Z,3.10
2022-08-21T15:04:44.998Z,3.25
2022-08-21T15:07:13.595Z,3.33
2022-08-21T15:09:42.296Z,3.03
2022-08-21T15:12:11.928Z,2.97
2022-08-21T15:14:42.965Z,3.50
2022-08-21T15:17:13.181Z,3.38
2022-08-21T15:19:42.204Z,3.20
2022-08-21T15:22:18.890Z,3.85
2022-08-21T15:24:48.049Z,3.30
2022-08-21T15:27:20.005Z,2.95
2022-08-21T15:29:49.439Z,3.20
2022-08-21T15:32:23.848Z,3.40
2022-08-21T15:34:54.311Z,3.30
2022-08-21T15:37:26.047Z,3.20
2022-08-21T15:39:55.432Z,3.22
2022-08-21T15:42:25.317Z,3.28
2022-08-21T15:44:56.182Z,2.67
2022-08-21T15:47:36.689Z,3.10
2022-08-21T15:50:09.076Z,3.08
2022-08-21T15:52:39.599Z,4.63
2022-08-21T15:55:10.049Z,3.45
2022-08-21T15:57:44.533Z,3.50
2022-08-21T16:00:27.228Z,2.72
2022-08-21T16:03:01.080Z,2.78
2022-08-21T16:05:30.030Z,2.63
2022-08-21T16:08:00.405Z,2.78
2022-08-21T16:10:30.115Z,2.85
2022-08-21T16:13:05.857Z,3.20
2022-08-21T16:15:34.717Z,2.95
2022-08-21T16:18:03.875Z,2.60
2022-08-21T16:20:33.856Z,2.92
2022-08-21T16:23:03.869Z,2.45
2022-08-21T16:25:37.163Z,2.83
2022-08-21T16:28:15.238Z,3.15
2022-08-21T16:30:47.970Z,3.10
2022-08-21T16:33:26.493Z,3.28
2022-08-21T16:35:55.427Z,3.90
2022-08-21T16:38:26.199Z,3.63
2022-08-21T16:40:55.144Z,4.20
2022-08-21T16:43:27.465Z,3.80
2022-08-21T16:45:57.901Z,4.00
2022-08-21T16:48:27.116Z,3.72
2022-08-21T16:50:55.874Z,4.50
2022-08-21T16:53:28.030Z,3.70
2022-08-21T16:55:56.935Z,4.53
2022-08-21T16:58:30.493Z,3.78
2022-08-21T17:01:01.591Z,4.57
2022-08-21T17:03:35.471Z,4.50
2022-08-21T17:06:05.005Z,5.07
2022-08-21T17:08:35.015Z,4.40
2022-08-21T17:11:08.567Z,5.05
2022-08-21T17:13:37.369Z,4.82
2022-08-21T17:16:07.767Z,4.70
2022-08-21T17:18:36.381Z,4.20
2022-08-21T17:21:06.192Z,4.43
2022-08-21T17:23:36.641Z,5.10
2022-08-21T17:26:12.850Z,5.03
2022-08-21T17:28:42.617Z,4.68
2022-08-21T17:31:13.502Z,4.70
2022-08-21T17:33:51.047Z,4.55
2022-08-21T17:36:20.985Z,4.60
2022-08-21T17:38:51.632Z,4.82
2022-08-21T17:41:22.434Z,4.72
2022-08-21T17:43:52.406Z,4.85
2022-08-21T17:46:26.186Z,4.80
2022-08-21T17:48:55.641Z,4.68
2022-08-21T17:51:24.900Z,5.00
2022-08-21T17:53:54.962Z,4.78
2022-08-21T17:56:28.762Z,4.90
2022-08-21T17:58:58.045Z,4.63
2022-08-21T18:01:30.191Z,4.75
2022-08-21T18:03:58.864Z,4.88
2022-08-21T18:06:27.885Z,4.90
2022-08-21T18:08:58.409Z,4.75
2022-08-21T18:11:31.366Z,4.75
2022-08-21T18:14:07.365Z,5.03
2022-08-21T18:16:38.209Z,5.57
2022-08-21T18:19:11.901Z,5.10
2022-08-21T18:21:40.667Z,4.45
2022-08-21T18:24:10.908Z,8.27
2022-08-21T18:26:42.185Z,7.03
2022-08-21T18:29:16.890Z,6.35
2022-08-21T18:31:47.511Z,5.80
2022-08-21T18:34:25.896Z,5.93
2022-08-21T18:36:57.060Z,5.72
2022-08-21T18:39:36.818Z,6.35
2022-08-21T18:42:12.212Z,6.47
2022-08-21T18:44:45.046Z,6.72
2022-08-21T18:47:22.473Z,6.03
2022-08-21T18:49:51.659Z,5.50
2022-08-21T18:52:20.637Z,5.82
2022-08-21T18:54:50.649Z,5.82
2022-08-21T18:57:20.978Z,5.72
2022-08-21T18:59:49.906Z,5.45
2022-08-21T19:02:18.562Z,4.93
2022-08-21T19:04:47.999Z,5.82
2022-08-21T19:07:19.903Z,5.55
2022-08-21T19:10:20.911Z,5.50
2022-08-21T19:12:41.588Z,5.47
2022-08-21T19:15:16.865Z,5.30
2022-08-21T19:17:47.753Z,5.50
2022-08-21T19:20:26.188Z,5.00
2022-08-21T19:22:56.339Z,5.35
2022-08-21T19:25:33.568Z,5.72
2022-08-21T19:28:10.742Z,5.40
2022-08-21T19:31:04.781Z,5.05
2022-08-21T19:33:39.346Z,4.53
2022-08-21T19:36:11.294Z,5.03
2022-08-21T19:38:41.323Z,5.50
2022-08-21T19:41:16.637Z,5.30
2022-08-21T19:43:50.814Z,5.35
2022-08-21T19:46:26.996Z,4.75
2022-08-21T19:48:58.106Z,5.13
2022-08-21T19:51:27.816Z,5.70
2022-08-21T19:53:57.631Z,5.05
2022-08-21T19:56:30.867Z,5.20
2022-08-21T19:59:02.154Z,4.75
2022-08-21T20:01:32.589Z,5.40
2022-08-21T20:04:01.406Z,5.15
2022-08-21T20:06:30.130Z,5.30
2022-08-21T20:08:59.205Z,5.32
2022-08-21T20:11:33.025Z,5.43
2022-08-21T20:14:03.099Z,4.60
2022-08-21T20:16:32.585Z,4.88
2022-08-21T20:19:03.596Z,4.72
2022-08-21T20:21:43.305Z,5.00
2022-08-21T20:24:22.335Z,5.07
2022-08-21T20:26:58.413Z,4.38
2022-08-21T20:29:35.037Z,4.80
2022-08-21T20:32:12.321Z,4.88
2022-08-21T20:34:41.836Z,4.55
2022-08-21T20:37:14.093Z,5.38
2022-08-21T20:40:04.231Z,4.78
2022-08-21T20:42:34.295Z,5.20
2022-08-21T20:45:08.033Z,4.22
2022-08-21T20:47:38.485Z,4.47
2022-08-21T20:50:14.068Z,4.32
2022-08-21T20:52:43.662Z,5.07
2022-08-21T20:55:16.839Z,4.60
2022-08-21T20:57:57.857Z,4.38
2022-08-21T21:00:33.938Z,4.63
2022-08-21T21:03:09.945Z,4.90
2022-08-21T21:05:48.364Z,5.00
2022-08-21T21:08:26.129Z,4.72
2022-08-21T21:10:59.558Z,4.97
2022-08-21T21:13:35.797Z,4.50
2022-08-21T21:16:13.884Z,4.43
2022-08-21T21:18:47.854Z,4.78
2022-08-21T21:21:27.704Z,5.13
2022-08-21T21:24:07.295Z,5.28
2022-08-21T21:26:48.610Z,5.57
2022-08-21T21:29:25.642Z,4.90
2022-08-21T21:31:56.561Z,4.85
2022-08-21T21:34:28.107Z,4.40
2022-08-21T21:37:04.027Z,4.50
2022-08-21T21:39:44.728Z,4.72
2022-08-21T21:42:30.017Z,4.70
2022-08-21T21:45:24.479Z,5.40
2022-08-21T21:48:12.882Z,5.53
2022-08-21T21:50:54.132Z,5.18
2022-08-21T21:53:54.146Z,4.72
2022-08-21T21:56:35.934Z,5.20
2022-08-21T21:59:34.167Z,5.22
2022-08-21T22:02:16.913Z,5.60
2022-08-21T22:04:58.341Z,5.25
2022-08-21T22:07:38.460Z,5.32
2022-08-21T22:10:30.194Z,5.05
2022-08-21T22:13:26.418Z,5.32
2022-08-21T22:15:56.633Z,5.03
2022-08-21T22:18:32.433Z,5.43
2022-08-21T22:21:05.705Z,5.40
2022-08-21T22:23:42.232Z,5.50
2022-08-21T22:26:18.837Z,5.32
2022-08-21T22:28:51.831Z,5.15
2022-08-21T22:31:24.821Z,4.78
2022-08-21T22:34:18.205Z,4.78
2022-08-21T22:36:57.042Z,4.97
2022-08-21T22:39:35.909Z,5.53
2022-08-21T22:42:13.893Z,5.45
2022-08-21T22:44:52.981Z,5.63
2022-08-21T22:47:26.415Z,5.35
2022-08-21T22:50:03.861Z,4.88
2022-08-21T22:52:37.004Z,5.43
2022-08-21T22:55:25.359Z,5.30
2022-08-21T22:58:11.481Z,5.05
2022-08-21T23:00:55.475Z,5.30
2022-08-21T23:03:32.629Z,5.20
2022-08-21T23:06:12.683Z,5.15
2022-08-21T23:08:44.196Z,4.20
2022-08-21T23:11:20.982Z,5.40
2022-08-21T23:13:55.182Z,5.30
2022-08-21T23:19:54.844Z,5.07
2022-08-21T23:22:40.643Z,4.82
2022-08-21T23:25:44.955Z,5.05
2022-08-21T23:28:34.818Z,5.57
2022-08-21T23:31:18.640Z,5.00
2022-08-21T23:34:10.709Z,5.45
2022-08-21T23:37:23.239Z,5.45
2022-08-21T23:40:14.976Z,5.30
2022-08-21T23:43:03.257Z,5.07
2022-08-21T23:45:48.789Z,4.60
2022-08-21T23:48:35.937Z,6.03
2022-08-21T23:51:15.546Z,6.05
2022-08-21T23:54:00.042Z,5.53
2022-08-21T23:56:50.560Z,5.78
2022-08-21T23:59:31.735Z,5.70
